Time;durP1;ratioP1;P1;durP2;ratioP2;P2;SDS_P1;SDS_P2;PMS_P1;PMS_P2;Temp;Humidity;BMP_temperature;BMP_pressure;BME280_temperature;BME280_humidity;BME280_pressure;Samples;Min_cycle;Max_cycle;Signal;HPM_P1;HPM_P2
2022/01/16 00:00:40;;;;;;;36.50;23.47;;;3.10;92.00;;;;;;5020148;28;20179;-91
2022/01/16 00:05:51;;;;;;;39.10;25.57;;;3.00;92.10;;;;;;5038250;28;20257;-91
2022/01/16 00:08:17;;;;;;;35.53;26.60;;;3.00;92.10;;;;;;5020095;28;20260;-91
2022/01/16 00:10:44;;;;;;;39.30;26.83;;;3.00;92.10;;;;;;5020466;28;20173;-92
2022/01/16 00:13:10;;;;;;;38.70;26.50;;;2.90;92.10;;;;;;5021027;28;20293;-91
2022/01/16 00:15:36;;;;;;;35.67;25.80;;;2.90;92.20;;;;;;5023492;28;20624;-92
2022/01/16 00:20:31;;;;;;;41.10;27.13;;;3.00;92.20;;;;;;5042398;28;20169;-92
2022/01/16 00:22:57;;;;;;;37.87;26.07;;;2.90;92.20;;;;;;5029132;28;20193;-92
2022/01/16 00:25:24;;;;;;;44.63;27.43;;;2.90;92.20;;;;;;5026039;28;20208;-92
2022/01/16 00:27:50;;;;;;;42.33;28.37;;;2.80;92.10;;;;;;5021955;28;20264;-91
2022/01/16 00:30:17;;;;;;;40.93;27.27;;;2.80;92.20;;;;;;5019795;28;20182;-90
2022/01/16 00:32:43;;;;;;;36.73;26.53;;;2.70;92.20;;;;;;5019836;28;20196;-90
2022/01/16 00:35:11;;;;;;;37.20;26.60;;;2.70;92.20;;;;;;5019820;28;20181;-91
2022/01/16 00:37:37;;;;;;;37.07;25.43;;;2.60;92.20;;;;;;5019800;28;20291;-91
2022/01/16 00:40:03;;;;;;;36.63;25.20;;;2.60;92.20;;;;;;5020124;28;20169;-91
2022/01/16 00:42:30;;;;;;;45.80;28.30;;;2.50;92.20;;;;;;5019727;28;20197;-90
2022/01/16 00:44:55;;;;;;;41.60;28.83;;;2.40;92.20;;;;;;5019276;28;20203;-90
2022/01/16 00:47:21;;;;;;;39.63;27.13;;;2.40;92.40;;;;;;5019124;28;20181;-89
2022/01/16 00:49:46;;;;;;;43.23;27.63;;;2.40;92.50;;;;;;5018779;28;20181;-89
2022/01/16 00:52:12;;;;;;;41.80;25.87;;;2.40;92.80;;;;;;5018818;28;20665;-90
2022/01/16 00:54:38;;;;;;;43.10;29.60;;;2.40;93.00;;;;;;5018603;28;20281;-89
2022/01/16 00:57:05;;;;;;;40.87;26.60;;;2.40;93.20;;;;;;5018938;28;20201;-89
2022/01/16 00:59:30;;;;;;;43.10;27.50;;;2.40;93.40;;;;;;5018856;28;20211;-89
2022/01/16 01:01:56;;;;;;;40.90;28.00;;;2.50;93.50;;;;;;5018923;28;20204;-89
2022/01/16 01:04:22;;;;;;;44.07;26.17;;;2.50;93.60;;;;;;5017581;28;20177;-89
2022/01/16 01:06:49;;;;;;;41.80;27.93;;;2.50;93.60;;;;;;5019343;28;20183;-89
2022/01/16 01:09:16;;;;;;;40.10;27.63;;;2.50;93.80;;;;;;5018279;28;20187;-88
2022/01/16 01:11:44;;;;;;;39.10;26.10;;;2.50;93.90;;;;;;5018345;28;20349;-89
2022/01/16 01:14:24;;;;;;;42.03;26.40;;;2.60;94.00;;;;;;5036117;28;20549;-91
2022/01/16 01:16:55;;;;;;;45.63;28.93;;;2.60;94.00;;;;;;5018250;28;20750;-90
2022/01/16 01:19:29;;;;;;;48.63;30.83;;;2.60;94.10;;;;;;5018261;28;20167;-91
2022/01/16 01:21:56;;;;;;;40.13;27.43;;;2.70;94.20;;;;;;5018788;28;20329;-90
2022/01/16 01:24:23;;;;;;;42.70;25.70;;;2.80;94.20;;;;;;5018464;28;20648;-90
2022/01/16 01:29:29;;;;;;;43.13;26.13;;;2.70;94.30;;;;;;5035977;28;20167;-90
2022/01/16 01:31:57;;;;;;;49.70;31.63;;;2.70;94.40;;;;;;5017728;28;20195;-90
2022/01/16 01:34:22;;;;;;;43.33;26.77;;;2.70;94.50;;;;;;5017817;28;20178;-92
2022/01/16 01:36:49;;;;;;;47.67;27.67;;;2.70;94.50;;;;;;5018240;28;20745;-91
2022/01/16 01:39:20;;;;;;;53.17;31.97;;;2.80;94.60;;;;;;5018211;28;20241;-91
2022/01/16 01:41:49;;;;;;;54.37;32.13;;;2.70;94.60;;;;;;5018380;28;20294;-91
2022/01/16 01:52:27;;;;;;;49.33;30.57;;;2.80;94.80;;;;;;5036216;28;20206;-92
2022/01/16 01:54:53;;;;;;;53.47;32.20;;;2.80;94.80;;;;;;5017796;28;20193;-92
2022/01/16 01:57:19;;;;;;;55.03;31.43;;;2.80;94.90;;;;;;5017734;28;20226;-91
2022/01/16 01:59:45;;;;;;;50.93;31.17;;;2.80;94.90;;;;;;5017584;28;20173;-92
2022/01/16 02:02:10;;;;;;;54.57;34.50;;;2.80;95.00;;;;;;5017698;28;20257;-91
2022/01/16 02:04:37;;;;;;;48.27;31.23;;;2.80;95.00;;;;;;5017849;28;20219;-91
2022/01/16 02:07:03;;;;;;;55.17;33.10;;;2.80;95.10;;;;;;5017869;28;20581;-92
2022/01/16 02:09:30;;;;;;;50.80;30.13;;;2.90;95.10;;;;;;5017896;28;20179;-91
2022/01/16 02:11:56;;;;;;;48.03;28.53;;;3.00;95.10;;;;;;5017340;28;20684;-91
2022/01/16 02:14:49;;;;;;;47.37;29.03;;;2.90;95.20;;;;;;5017489;28;20188;-90
2022/01/16 02:36:11;;;;;;;64.03;33.70;;;3.00;95.60;;;;;;5034953;28;20176;-91
2022/01/16 02:38:37;;;;;;;58.47;31.37;;;3.00;95.60;;;;;;5017052;28;20176;-91
2022/01/16 02:41:04;;;;;;;66.27;35.00;;;3.00;95.70;;;;;;5016964;28;20263;-91
2022/01/16 02:43:34;;;;;;;59.77;31.63;;;3.00;95.70;;;;;;5018186;28;20180;-91
2022/01/16 02:48:44;;;;;;;71.17;37.43;;;3.00;95.80;;;;;;5034564;28;20145;-91
2022/01/16 02:51:14;;;;;;;66.57;35.77;;;3.00;95.80;;;;;;5016733;28;20814;-91
2022/01/16 02:53:40;;;;;;;71.47;35.97;;;3.00;95.90;;;;;;5016855;28;20185;-91
2022/01/16 02:56:05;;;;;;;79.00;40.53;;;3.00;95.90;;;;;;5016613;28;20183;-92
2022/01/16 02:58:31;;;;;;;48.57;22.50;;;3.00;95.90;;;;;;5016641;28;20182;-92
2022/01/16 03:00:57;;;;;;;78.73;38.60;;;3.00;95.90;;;;;;5017373;28;20186;-91
2022/01/16 03:03:25;;;;;;;90.03;42.30;;;3.00;96.00;;;;;;5016950;28;20185;-92
2022/01/16 03:05:51;;;;;;;81.23;40.87;;;3.00;96.00;;;;;;5016425;28;20233;-91
2022/01/16 03:08:17;;;;;;;75.40;38.03;;;2.90;96.00;;;;;;5016451;28;20183;-91
2022/01/16 03:13:31;;;;;;;83.77;40.17;;;2.90;96.10;;;;;;5034556;28;20186;-91
2022/01/16 03:15:57;;;;;;;90.73;44.13;;;3.00;96.10;;;;;;5016270;28;20237;-91
2022/01/16 03:23:33;;;;;;;86.33;35.70;;;3.00;96.10;;;;;;5034835;28;20163;-91
2022/01/16 03:26:00;;;;;;;95.60;43.37;;;3.00;96.10;;;;;;5016196;28;20536;-92
2022/01/16 03:28:26;;;;;;;122.90;49.63;;;3.00;96.10;;;;;;5016048;28;20176;-91
2022/01/16 03:30:53;;;;;;;131.00;50.13;;;2.90;96.10;;;;;;5016160;28;20651;-91
2022/01/16 03:33:20;;;;;;;124.90;47.10;;;2.90;96.10;;;;;;5016094;28;20271;-92
2022/01/16 03:35:47;;;;;;;126.73;46.00;;;2.90;96.00;;;;;;5016222;28;20559;-91
2022/01/16 03:38:15;;;;;;;128.40;50.53;;;2.80;95.90;;;;;;5016085;28;20274;-91
2022/01/16 03:40:40;;;;;;;111.70;40.43;;;2.80;95.80;;;;;;5015901;28;20180;-91
2022/01/16 03:43:13;;;;;;;110.03;41.90;;;2.80;95.80;;;;;;5016054;28;20210;-91
2022/01/16 03:45:45;;;;;;;135.03;48.10;;;2.80;95.60;;;;;;5015948;28;20229;-91
2022/01/16 03:48:12;;;;;;;128.17;47.23;;;2.80;95.40;;;;;;5015957;28;20651;-91
2022/01/16 03:50:38;;;;;;;136.37;47.17;;;2.80;95.30;;;;;;5015931;28;20186;-91
2022/01/16 03:53:04;;;;;;;146.00;51.67;;;2.90;95.20;;;;;;5016238;28;20225;-92
2022/01/16 03:55:31;;;;;;;143.07;53.03;;;2.90;95.20;;;;;;5016757;28;20180;-92
2022/01/16 03:57:58;;;;;;;130.33;50.97;;;2.90;95.10;;;;;;5016492;28;20211;-92
2022/01/16 04:00:24;;;;;;;131.70;50.40;;;2.90;95.00;;;;;;5017561;28;20208;-92
2022/01/16 04:02:50;;;;;;;111.07;46.73;;;3.00;95.00;;;;;;5016857;28;20199;-92
2022/01/16 04:05:15;;;;;;;125.47;48.47;;;2.90;94.80;;;;;;5016152;28;20190;-92
2022/01/16 04:07:41;;;;;;;107.23;45.67;;;2.90;94.50;;;;;;5016483;28;20188;-93
2022/01/16 04:10:08;;;;;;;107.33;45.67;;;3.00;94.30;;;;;;5016131;28;20183;-92
2022/01/16 04:12:37;;;;;;;103.27;47.43;;;3.00;94.30;;;;;;5016895;28;20196;-92
2022/01/16 04:17:28;;;;;;;75.03;35.53;;;3.00;94.20;;;;;;5034164;28;20240;-92
2022/01/16 04:19:54;;;;;;;84.13;39.53;;;3.00;94.10;;;;;;5016705;28;20177;-92
2022/01/16 04:22:20;;;;;;;76.73;39.17;;;3.00;94.20;;;;;;5016019;28;20202;-92
2022/01/16 04:24:46;;;;;;;61.00;29.37;;;3.00;94.10;;;;;;5016360;28;20220;-92
2022/01/16 04:27:13;;;;;;;67.03;32.50;;;3.00;94.00;;;;;;5016325;28;20282;-92
2022/01/16 04:29:45;;;;;;;64.33;30.73;;;3.00;93.80;;;;;;5016042;28;20669;-92
2022/01/16 04:32:11;;;;;;;67.00;32.13;;;3.00;93.70;;;;;;5015930;28;20617;-92
2022/01/16 04:34:37;;;;;;;58.27;28.50;;;2.90;93.40;;;;;;5016668;28;20620;-92
2022/01/16 04:37:03;;;;;;;58.80;28.10;;;2.90;93.20;;;;;;5016171;28;20236;-92
2022/01/16 04:39:33;;;;;;;61.70;29.13;;;2.90;93.30;;;;;;5017093;28;20187;-92
2022/01/16 04:44:44;;;;;;;64.60;30.50;;;3.00;93.20;;;;;;5038160;28;20179;-93
2022/01/16 04:47:09;;;;;;;65.00;32.33;;;3.00;93.10;;;;;;5019987;28;20656;-92
2022/01/16 04:49:35;;;;;;;58.80;30.93;;;3.00;93.20;;;;;;5020058;28;20177;-92
2022/01/16 04:52:01;;;;;;;59.13;31.73;;;3.00;93.20;;;;;;5019578;28;20212;-92
2022/01/16 04:54:26;;;;;;;66.27;32.67;;;3.00;93.30;;;;;;5020014;28;20206;-92
2022/01/16 04:56:52;;;;;;;65.03;31.40;;;3.00;93.20;;;;;;5019493;28;20207;-92
2022/01/16 04:59:19;;;;;;;59.57;28.03;;;3.00;93.10;;;;;;5019695;28;20247;-92
2022/01/16 05:01:45;;;;;;;61.53;32.03;;;3.10;93.10;;;;;;5019356;28;20612;-92
2022/01/16 05:04:10;;;;;;;58.23;31.63;;;3.10;93.10;;;;;;5019972;28;20176;-92
2022/01/16 05:06:36;;;;;;;56.93;30.70;;;3.10;93.20;;;;;;5019944;28;20195;-92
2022/01/16 05:09:03;;;;;;;62.80;31.00;;;3.10;93.30;;;;;;5020204;28;20203;-92
2022/01/16 05:11:28;;;;;;;66.97;33.03;;;3.00;93.40;;;;;;5019532;28;20294;-92
2022/01/16 05:16:35;;;;;;;64.50;29.77;;;3.10;93.40;;;;;;5037474;28;20665;-92
2022/01/16 05:19:12;;;;;;;61.47;29.63;;;3.00;93.40;;;;;;5019906;28;20172;-92
2022/01/16 05:21:38;;;;;;;63.07;30.17;;;3.10;93.40;;;;;;5019914;28;20222;-92
2022/01/16 05:24:08;;;;;;;64.17;30.63;;;3.10;93.50;;;;;;5019759;28;20641;-92
2022/01/16 05:26:35;;;;;;;67.77;32.60;;;3.10;93.50;;;;;;5020155;28;20204;-93
2022/01/16 05:29:02;;;;;;;63.93;31.00;;;3.10;93.50;;;;;;5019440;28;20232;-92
2022/01/16 05:31:28;;;;;;;66.10;31.73;;;3.10;93.50;;;;;;5019523;28;20213;-93
2022/01/16 05:33:53;;;;;;;64.27;32.57;;;3.10;93.60;;;;;;5019516;28;20275;-92
2022/01/16 05:36:20;;;;;;;68.70;34.60;;;3.00;93.60;;;;;;5018941;28;20291;-93
2022/01/16 05:38:47;;;;;;;62.03;29.87;;;3.10;93.60;;;;;;5019154;28;20196;-92
2022/01/16 05:41:13;;;;;;;68.07;34.13;;;3.10;93.60;;;;;;5019167;28;20226;-92
2022/01/16 05:43:38;;;;;;;68.57;33.63;;;3.10;93.70;;;;;;5019193;28;20180;-92
2022/01/16 05:46:04;;;;;;;66.77;31.27;;;3.10;93.70;;;;;;5018869;28;20239;-92
2022/01/16 05:48:30;;;;;;;66.63;31.93;;;3.10;93.80;;;;;;5019349;28;20185;-93
2022/01/16 05:50:56;;;;;;;66.27;33.17;;;3.10;93.80;;;;;;5018950;28;20212;-93
2022/01/16 05:53:21;;;;;;;63.00;32.07;;;3.10;93.80;;;;;;5018482;28;20192;-92
2022/01/16 05:55:47;;;;;;;71.00;34.10;;;3.10;93.80;;;;;;5018804;28;20215;-92
2022/01/16 05:58:14;;;;;;;74.77;34.30;;;3.20;93.70;;;;;;5018573;28;20205;-92
2022/01/16 06:00:40;;;;;;;70.63;35.30;;;3.10;93.70;;;;;;5018876;28;20186;-93
2022/01/16 06:03:08;;;;;;;75.83;36.60;;;3.10;93.50;;;;;;5018602;28;20188;-93
2022/01/16 06:05:34;;;;;;;71.60;35.63;;;3.20;93.40;;;;;;5019556;28;20176;-93
2022/01/16 06:08:06;;;;;;;70.27;33.17;;;3.20;93.30;;;;;;5018920;28;20248;-93
2022/01/16 06:10:32;;;;;;;73.23;30.57;;;3.20;93.30;;;;;;5018387;28;20219;-92
2022/01/16 06:12:57;;;;;;;71.63;33.43;;;3.20;93.30;;;;;;5018224;28;20203;-92
2022/01/16 06:15:23;;;;;;;76.90;37.37;;;3.20;93.20;;;;;;5018572;28;20191;-92
2022/01/16 06:17:49;;;;;;;69.43;34.43;;;3.20;92.90;;;;;;5018514;28;20299;-92
2022/01/16 06:20:15;;;;;;;76.10;37.17;;;3.20;92.80;;;;;;5018560;28;20177;-93
2022/01/16 06:22:42;;;;;;;69.47;35.10;;;3.20;92.80;;;;;;5018522;28;20206;-92
2022/01/16 06:25:09;;;;;;;73.30;35.53;;;3.20;92.70;;;;;;5018446;28;20259;-91
2022/01/16 06:27:35;;;;;;;68.73;34.03;;;3.20;92.60;;;;;;5035849;28;20195;-92
2022/01/16 06:30:01;;;;;;;70.53;33.17;;;3.10;92.30;;;;;;5019707;28;20218;-92
2022/01/16 06:32:27;;;;;;;72.93;34.47;;;3.20;92.20;;;;;;5018195;28;20276;-92
2022/01/16 06:34:52;;;;;;;68.97;35.40;;;3.20;92.10;;;;;;5018492;28;20700;-92
2022/01/16 06:37:18;;;;;;;70.83;35.47;;;3.10;92.10;;;;;;5018630;28;20200;-92
2022/01/16 06:39:44;;;;;;;61.80;30.70;;;3.20;92.20;;;;;;5018605;28;20186;-92
2022/01/16 06:42:09;;;;;;;67.47;34.30;;;3.20;92.20;;;;;;5017977;28;20203;-92
2022/01/16 06:44:35;;;;;;;58.33;28.33;;;3.20;92.40;;;;;;5018554;28;20257;-92
2022/01/16 06:47:00;;;;;;;49.40;24.83;;;3.20;92.60;;;;;;5018339;28;20180;-92
2022/01/16 06:49:26;;;;;;;71.13;35.47;;;3.10;92.90;;;;;;5017791;28;20224;-92
2022/01/16 06:51:52;;;;;;;62.57;29.57;;;3.00;92.60;;;;;;5017643;28;20204;-91
2022/01/16 06:54:17;;;;;;;65.33;33.30;;;3.00;92.60;;;;;;5016997;28;20207;-92
2022/01/16 06:56:43;;;;;;;65.87;34.27;;;3.00;92.60;;;;;;5016885;28;20207;-92
2022/01/16 06:59:09;;;;;;;69.10;32.43;;;3.00;92.50;;;;;;5017443;28;20180;-91
2022/01/16 07:01:35;;;;;;;62.83;29.20;;;2.90;92.40;;;;;;5017163;28;20203;-91
2022/01/16 07:04:00;;;;;;;64.73;29.60;;;2.90;92.30;;;;;;5017554;28;20176;-92
2022/01/16 07:06:26;;;;;;;69.53;34.43;;;2.90;92.40;;;;;;5018997;28;20206;-93
2022/01/16 07:08:52;;;;;;;64.87;32.37;;;2.90;92.40;;;;;;5019258;28;20187;-93
2022/01/16 07:11:18;;;;;;;57.53;26.73;;;2.90;92.50;;;;;;5017926;28;20215;-91
2022/01/16 07:13:43;;;;;;;67.80;31.43;;;2.90;92.60;;;;;;5018212;28;20207;-92
2022/01/16 07:16:09;;;;;;;55.03;24.73;;;2.90;92.80;;;;;;5017177;28;20194;-91
2022/01/16 07:18:35;;;;;;;74.37;34.20;;;2.90;92.60;;;;;;5017116;28;20266;-92
2022/01/16 07:21:01;;;;;;;71.10;30.53;;;2.80;92.60;;;;;;5018051;28;20203;-92
2022/01/16 07:23:26;;;;;;;62.40;29.17;;;2.80;92.50;;;;;;5017527;28;20187;-91
2022/01/16 07:25:52;;;;;;;78.00;29.47;;;2.90;92.70;;;;;;5017033;28;20207;-92
2022/01/16 07:28:19;;;;;;;67.23;30.43;;;2.90;92.80;;;;;;5018187;28;20696;-92
2022/01/16 07:30:45;;;;;;;71.40;33.00;;;2.90;92.80;;;;;;5017723;28;20180;-92
2022/01/16 07:33:12;;;;;;;80.13;35.50;;;2.90;92.80;;;;;;5018143;28;20329;-92
2022/01/16 07:35:39;;;;;;;74.53;34.80;;;2.90;92.80;;;;;;5017495;28;20215;-92
2022/01/16 07:38:06;;;;;;;81.57;37.33;;;2.90;92.90;;;;;;5017797;28;20208;-92
2022/01/16 07:40:31;;;;;;;81.90;37.27;;;2.90;93.00;;;;;;5018400;28;20204;-92
2022/01/16 07:42:59;;;;;;;73.10;29.40;;;2.90;93.00;;;;;;5017681;28;20204;-91
2022/01/16 07:45:25;;;;;;;67.37;29.53;;;2.90;93.10;;;;;;5017343;28;20607;-92
2022/01/16 07:47:50;;;;;;;87.43;37.87;;;2.90;92.90;;;;;;5019206;28;20182;-92
2022/01/16 07:50:17;;;;;;;76.60;31.60;;;2.80;93.00;;;;;;5021133;28;20210;-92
2022/01/16 07:52:43;;;;;;;98.50;42.73;;;2.80;93.10;;;;;;5021013;28;20293;-92
2022/01/16 07:55:09;;;;;;;96.87;39.27;;;2.80;93.00;;;;;;5020710;28;20182;-92
2022/01/16 07:57:35;;;;;;;99.17;42.10;;;2.80;93.10;;;;;;5021308;28;20254;-91
2022/01/16 08:00:03;;;;;;;105.80;38.97;;;2.70;93.20;;;;;;5020353;28;20244;-92
2022/01/16 08:02:29;;;;;;;87.23;37.43;;;2.80;93.20;;;;;;5020480;28;20204;-92
2022/01/16 08:04:54;;;;;;;77.00;33.60;;;2.70;93.20;;;;;;5020657;28;20180;-92
2022/01/16 08:07:20;;;;;;;86.87;35.20;;;2.70;93.30;;;;;;5021401;28;20637;-91
2022/01/16 08:09:46;;;;;;;85.27;35.57;;;2.80;93.40;;;;;;5020427;28;20192;-92
2022/01/16 08:12:12;;;;;;;98.43;40.33;;;2.80;93.50;;;;;;5020586;28;20222;-92
2022/01/16 08:14:38;;;;;;;100.20;38.17;;;2.80;93.60;;;;;;5023723;28;20241;-92
2022/01/16 08:17:04;;;;;;;116.00;40.07;;;2.80;93.60;;;;;;5024221;28;20242;-92
2022/01/16 08:19:30;;;;;;;105.73;38.73;;;2.80;93.70;;;;;;5022797;28;20172;-92
2022/01/16 08:21:56;;;;;;;107.30;41.03;;;2.70;93.70;;;;;;5024620;28;20198;-92
2022/01/16 08:24:23;;;;;;;117.70;45.63;;;2.80;93.80;;;;;;5025922;28;20267;-92
2022/01/16 08:26:49;;;;;;;97.37;35.60;;;2.70;93.90;;;;;;5026793;28;20183;-91
2022/01/16 08:29:14;;;;;;;92.83;32.07;;;2.70;93.90;;;;;;5023674;28;20184;-92
2022/01/16 08:31:40;;;;;;;108.10;45.43;;;2.80;94.00;;;;;;5025686;28;20196;-92
2022/01/16 08:34:06;;;;;;;69.97;28.80;;;2.80;94.00;;;;;;5024286;28;20274;-92
2022/01/16 08:36:32;;;;;;;101.97;37.90;;;2.70;94.10;;;;;;5024249;28;20290;-91
2022/01/16 08:38:57;;;;;;;73.80;27.87;;;2.70;94.10;;;;;;5024903;28;20267;-92
2022/01/16 08:41:25;;;;;;;112.67;43.77;;;2.60;94.20;;;;;;5023336;28;20202;-91
2022/01/16 08:43:51;;;;;;;117.03;40.27;;;2.70;94.30;;;;;;5023665;28;20183;-92
2022/01/16 08:46:18;;;;;;;118.47;44.97;;;2.60;94.30;;;;;;5023389;28;20179;-92
2022/01/16 08:48:43;;;;;;;113.30;44.53;;;2.70;94.40;;;;;;5023269;28;20257;-93
2022/01/16 08:51:09;;;;;;;107.07;39.40;;;2.70;94.40;;;;;;5022577;28;20233;-92
2022/01/16 08:53:35;;;;;;;114.00;36.10;;;2.70;94.40;;;;;;5022393;28;20198;-91
2022/01/16 08:56:00;;;;;;;119.33;43.17;;;2.70;94.50;;;;;;5024213;28;20173;-92
2022/01/16 08:58:27;;;;;;;102.93;36.77;;;2.70;94.50;;;;;;5021365;28;20278;-93
2022/01/16 09:00:53;;;;;;;118.37;44.83;;;2.70;94.60;;;;;;5022266;28;20177;-93
2022/01/16 09:03:20;;;;;;;113.43;42.20;;;2.70;94.60;;;;;;5025157;28;20173;-93
2022/01/16 09:05:46;;;;;;;124.90;43.83;;;2.70;94.60;;;;;;5020495;28;20743;-90
2022/01/16 09:08:13;;;;;;;137.00;47.00;;;2.70;94.70;;;;;;5018813;28;20296;-92
2022/01/16 09:10:41;;;;;;;115.93;39.77;;;2.80;94.70;;;;;;5019655;28;20213;-93
2022/01/16 09:13:11;;;;;;;119.10;41.83;;;2.70;94.70;;;;;;5023404;28;20200;-93
2022/01/16 09:15:38;;;;;;;112.97;40.87;;;2.80;94.80;;;;;;5020050;28;20182;-92
2022/01/16 09:18:04;;;;;;;150.97;41.70;;;2.80;94.80;;;;;;5018706;28;20208;-93
2022/01/16 09:20:30;;;;;;;137.30;45.80;;;2.80;94.90;;;;;;5018742;28;20180;-93
2022/01/16 09:22:55;;;;;;;120.57;41.03;;;2.80;94.90;;;;;;5018217;28;20197;-92
2022/01/16 09:25:22;;;;;;;98.50;34.40;;;2.80;94.90;;;;;;5017616;28;20186;-92
2022/01/16 09:27:48;;;;;;;120.33;45.77;;;2.80;94.90;;;;;;5018335;28;20172;-93
2022/01/16 09:30:13;;;;;;;125.83;41.23;;;2.80;94.90;;;;;;5018497;28;20252;-92
2022/01/16 09:32:39;;;;;;;125.07;43.47;;;2.80;95.00;;;;;;5018335;28;20206;-92
2022/01/16 09:35:07;;;;;;;139.17;47.27;;;2.80;95.00;;;;;;5018307;28;20227;-92
2022/01/16 09:37:33;;;;;;;116.30;38.73;;;2.80;95.10;;;;;;5018285;28;20258;-93
2022/01/16 09:39:59;;;;;;;140.87;48.17;;;2.80;95.10;;;;;;5018488;28;20179;-92
2022/01/16 09:42:25;;;;;;;129.43;40.83;;;2.90;95.10;;;;;;5018079;28;20200;-92
2022/01/16 09:44:52;;;;;;;134.70;47.67;;;2.90;95.10;;;;;;5019446;28;20180;-93
2022/01/16 09:47:17;;;;;;;92.63;32.17;;;2.90;95.20;;;;;;5019888;28;20276;-92
2022/01/16 09:49:44;;;;;;;125.37;43.63;;;2.90;95.20;;;;;;5018575;28;20212;-92
2022/01/16 09:52:10;;;;;;;152.10;50.90;;;2.90;95.20;;;;;;5019070;28;20219;-92
2022/01/16 09:54:37;;;;;;;144.20;46.63;;;3.00;95.20;;;;;;5039043;22;20233;-92
2022/01/16 09:57:04;;;;;;;126.40;40.77;;;3.00;95.20;;;;;;5014087;28;20240;-91
2022/01/16 09:59:30;;;;;;;147.77;48.37;;;3.00;95.20;;;;;;5014329;28;20227;-92
2022/01/16 10:01:56;;;;;;;87.70;31.10;;;3.00;95.20;;;;;;5014263;28;20172;-92
2022/01/16 10:04:38;;;;;;;146.63;50.47;;;3.10;95.30;;;;;;5014009;28;20677;-91
2022/01/16 10:07:12;;;;;;;155.80;49.73;;;3.20;95.20;;;;;;5014474;28;20241;-92
2022/01/16 10:09:40;;;;;;;151.17;50.10;;;3.20;95.20;;;;;;5017367;28;20667;-93
2022/01/16 10:12:19;;;;;;;103.83;32.87;;;3.20;95.10;;;;;;5015764;28;20177;-92
2022/01/16 10:14:49;;;;;;;116.07;38.43;;;3.20;95.10;;;;;;5015176;28;20204;-92
2022/01/16 10:17:20;;;;;;;110.63;36.33;;;3.20;95.10;;;;;;5014138;28;20196;-92
2022/01/16 10:20:03;;;;;;;128.47;42.40;;;3.30;95.00;;;;;;5014512;28;20175;-92
2022/01/16 10:22:39;;;;;;;124.53;45.87;;;3.30;95.00;;;;;;5014159;28;20641;-92
2022/01/16 10:25:06;;;;;;;100.13;35.50;;;3.30;95.00;;;;;;5015403;28;20537;-93
2022/01/16 10:27:38;;;;;;;108.50;36.67;;;3.30;95.00;;;;;;5016638;28;20183;-92
2022/01/16 10:30:09;;;;;;;116.70;43.93;;;3.30;95.10;;;;;;5014628;28;20185;-93
2022/01/16 10:32:46;;;;;;;116.77;40.57;;;3.30;95.10;;;;;;5015789;28;20173;-92
2022/01/16 10:35:15;;;;;;;114.73;40.80;;;3.30;95.20;;;;;;5013682;28;20548;-92
2022/01/16 10:37:52;;;;;;;84.87;33.57;;;3.30;95.20;;;;;;5014303;28;20193;-93
2022/01/16 10:40:22;;;;;;;104.70;37.57;;;3.40;95.20;;;;;;5014023;28;20169;-93
2022/01/16 10:42:52;;;;;;;109.93;37.67;;;3.40;95.20;;;;;;5014577;28;20174;-93
2022/01/16 10:45:23;;;;;;;95.47;33.53;;;3.40;95.20;;;;;;5013798;28;20719;-93
2022/01/16 10:47:53;;;;;;;104.30;38.53;;;3.40;95.20;;;;;;5013763;28;20173;-92
2022/01/16 10:50:25;;;;;;;91.23;32.27;;;3.40;95.20;;;;;;5013803;28;20199;-92
2022/01/16 10:52:55;;;;;;;50.17;21.77;;;3.40;95.20;;;;;;5014172;28;20176;-93
2022/01/16 10:55:44;;;;;;;68.63;26.23;;;3.40;95.10;;;;;;5014447;28;20177;-92
2022/01/16 10:58:18;;;;;;;83.23;32.27;;;3.50;95.10;;;;;;5014658;28;20200;-93
2022/01/16 11:00:56;;;;;;;92.17;34.67;;;3.50;95.10;;;;;;5014789;28;20214;-93
2022/01/16 11:03:23;;;;;;;91.20;35.43;;;3.50;95.20;;;;;;5018097;28;20200;-93
2022/01/16 11:05:50;;;;;;;88.27;35.73;;;3.50;95.20;;;;;;5015603;28;20173;-92
2022/01/16 11:08:18;;;;;;;85.47;33.80;;;3.50;95.20;;;;;;5017963;28;20180;-92
2022/01/16 11:10:47;;;;;;;85.87;35.50;;;3.50;95.30;;;;;;5015539;28;20208;-92
2022/01/16 11:13:23;;;;;;;90.60;33.63;;;3.50;95.30;;;;;;5013735;28;20201;-92
2022/01/16 11:15:51;;;;;;;102.90;40.03;;;3.50;95.30;;;;;;5013456;28;20215;-93
2022/01/16 11:18:18;;;;;;;93.13;36.60;;;3.60;95.40;;;;;;5013218;28;20284;-92
2022/01/16 11:20:55;;;;;;;95.47;38.43;;;3.60;95.30;;;;;;5012891;28;20596;-92
2022/01/16 11:26:05;;;;;;;108.60;39.33;;;3.60;95.40;;;;;;5014546;28;20200;-92
2022/01/16 11:28:32;;;;;;;97.20;32.63;;;3.60;95.40;;;;;;5012649;28;20255;-92
2022/01/16 11:31:01;;;;;;;100.93;37.43;;;3.70;95.40;;;;;;5012793;28;20183;-92
2022/01/16 11:33:29;;;;;;;106.07;40.80;;;3.70;95.40;;;;;;5012474;28;20198;-92
2022/01/16 11:35:56;;;;;;;81.23;30.93;;;3.60;95.40;;;;;;5012803;28;20181;-92
2022/01/16 11:38:28;;;;;;;109.27;42.17;;;3.70;95.40;;;;;;5013152;28;20583;-92
2022/01/16 11:40:53;;;;;;;94.77;36.77;;;3.70;95.40;;;;;;5013073;28;20167;-92
2022/01/16 11:43:36;;;;;;;124.63;46.17;;;3.70;95.40;;;;;;5012536;28;20252;-92
2022/01/16 11:46:11;;;;;;;107.77;42.27;;;3.80;95.40;;;;;;5013378;28;20162;-92
2022/01/16 11:49:05;;;;;;;102.23;37.30;;;3.80;95.40;;;;;;5012352;28;20170;-91
2022/01/16 11:51:39;;;;;;;83.50;31.30;;;3.80;95.30;;;;;;5000059;28;20182;-92
2022/01/16 11:54:09;;;;;;;87.37;31.77;;;3.80;95.30;;;;;;5012300;28;20308;-92
2022/01/16 11:56:38;;;;;;;114.43;41.33;;;3.90;95.30;;;;;;5013364;28;20197;-92
2022/01/16 11:59:15;;;;;;;115.23;41.13;;;3.90;95.20;;;;;;5013890;28;20181;-93
2022/01/16 12:01:45;;;;;;;106.23;38.40;;;4.00;95.20;;;;;;5015034;28;20175;-92
2022/01/16 12:04:41;;;;;;;124.27;46.13;;;4.00;95.20;;;;;;5013497;28;20220;-92
2022/01/16 12:07:12;;;;;;;110.03;41.70;;;3.90;95.10;;;;;;4992118;28;20189;-92
2022/01/16 12:12:12;;;;;;;116.33;44.57;;;4.00;95.10;;;;;;5014122;28;20182;-92
2022/01/16 12:14:48;;;;;;;112.23;43.13;;;4.00;95.10;;;;;;5012490;28;20212;-91
2022/01/16 12:17:47;;;;;;;102.43;39.23;;;4.10;95.10;;;;;;5012420;28;20727;-92
2022/01/16 12:22:52;;;;;;;97.10;40.20;;;4.20;95.00;;;;;;5014130;28;20183;-92
2022/01/16 12:25:21;;;;;;;123.20;49.63;;;4.20;95.00;;;;;;5013100;28;20629;-92
2022/01/16 12:27:53;;;;;;;124.53;49.57;;;4.20;95.00;;;;;;5012984;28;20173;-92
2022/01/16 12:30:27;;;;;;;99.47;42.70;;;4.20;95.00;;;;;;5012615;28;20702;-92
2022/01/16 12:32:55;;;;;;;102.53;40.47;;;4.30;95.00;;;;;;5012709;28;20193;-92
2022/01/16 12:36:05;;;;;;;111.87;47.30;;;4.30;95.00;;;;;;5016847;28;20542;-92
2022/01/16 12:38:33;;;;;;;111.47;48.40;;;4.30;94.90;;;;;;4941234;29;20211;-93
2022/01/16 12:41:21;;;;;;;139.53;52.43;;;4.40;94.90;;;;;;5005174;28;20224;-93
2022/01/16 12:44:00;;;;;;;125.47;52.17;;;4.40;94.90;;;;;;5012437;28;20235;-92
2022/01/16 12:46:42;;;;;;;143.00;55.23;;;4.60;94.80;;;;;;5013722;28;20178;-92
2022/01/16 12:49:14;;;;;;;136.73;51.70;;;4.50;94.80;;;;;;5015297;28;20178;-93
2022/01/16 12:51:43;;;;;;;115.70;47.33;;;4.60;94.80;;;;;;5015521;28;20185;-93
2022/01/16 12:54:17;;;;;;;121.30;50.60;;;4.60;94.70;;;;;;5015249;28;20224;-93
2022/01/16 12:56:49;;;;;;;120.43;52.60;;;4.70;94.70;;;;;;5014837;28;20201;-93
2022/01/16 12:59:30;;;;;;;98.53;41.70;;;4.70;94.70;;;;;;5019346;28;20177;-93
2022/01/16 13:01:57;;;;;;;102.00;39.23;;;4.80;94.60;;;;;;5020770;28;20175;-93
2022/01/16 13:04:36;;;;;;;118.07;49.33;;;4.80;94.70;;;;;;5020340;28;20201;-94
2022/01/16 13:07:15;;;;;;;116.00;48.40;;;4.80;94.70;;;;;;5018829;28;20175;-93
2022/01/16 13:09:41;;;;;;;110.80;47.53;;;4.80;94.70;;;;;;5017407;28;20168;-93
2022/01/16 13:12:12;;;;;;;104.70;44.00;;;4.80;94.70;;;;;;5017626;28;20210;-93
2022/01/16 13:14:39;;;;;;;103.33;46.97;;;4.90;94.60;;;;;;5019535;28;20193;-94
2022/01/16 13:17:08;;;;;;;105.87;47.13;;;4.90;94.60;;;;;;5019586;28;20241;-93
2022/01/16 13:19:40;;;;;;;115.63;47.37;;;4.90;94.50;;;;;;5018947;28;20757;-93
2022/01/16 13:22:11;;;;;;;125.47;52.13;;;4.90;94.50;;;;;;5021759;28;20258;-93
2022/01/16 13:25:03;;;;;;;94.80;42.83;;;4.90;94.50;;;;;;5020233;28;20194;-93
2022/01/16 13:27:40;;;;;;;98.80;39.70;;;4.90;94.40;;;;;;5018352;28;20170;-93
2022/01/16 13:30:23;;;;;;;99.67;42.50;;;4.90;94.40;;;;;;5021797;28;20180;-94
2022/01/16 13:32:50;;;;;;;42.93;22.27;;;5.00;94.50;;;;;;5020510;28;20635;-93
2022/01/16 13:35:24;;;;;;;98.40;40.63;;;5.00;94.50;;;;;;5019026;28;20183;-93
2022/01/16 13:37:54;;;;;;;104.83;48.40;;;5.00;94.40;;;;;;5020709;28;20199;-92
2022/01/16 13:40:24;;;;;;;86.10;36.40;;;5.00;94.40;;;;;;5020747;28;20179;-93